sensor_id;sensor_type;location;lat;lon;timestamp;temperature;humidity
62573;DHT22;48626;51.678;5.806;2023-05-02T00:01:49;13.50;99.90
62573;DHT22;48626;51.678;5.806;2023-05-02T00:04:16;13.50;99.90
62573;DHT22;48626;51.678;5.806;2023-05-02T00:06:42;13.40;99.90
62573;DHT22;48626;51.678;5.806;2023-05-02T00:09:07;13.40;99.90
62573;DHT22;48626;51.678;5.806;2023-05-02T00:11:33;13.50;99.90
62573;DHT22;48626;51.678;5.806;2023-05-02T00:13:59;13.50;99.90
62573;DHT22;48626;51.678;5.806;2023-05-02T00:16:24;13.50;99.90
62573;DHT22;48626;51.678;5.806;2023-05-02T00:18:50;13.40;99.90
62573;DHT22;48626;51.678;5.806;2023-05-02T00:21:16;13.40;99.90
62573;DHT22;48626;51.678;5.806;2023-05-02T00:23:41;13.40;99.90
62573;DHT22;48626;51.678;5.806;2023-05-02T00:26:08;13.40;99.90
62573;DHT22;48626;51.678;5.806;2023-05-02T00:28:34;13.30;99.90
62573;DHT22;48626;51.678;5.806;2023-05-02T00:31:00;13.30;99.90
62573;DHT22;48626;51.678;5.806;2023-05-02T00:33:25;13.30;99.90
62573;DHT22;48626;51.678;5.806;2023-05-02T00:35:51;13.30;99.90
62573;DHT22;48626;51.678;5.806;2023-05-02T00:38:17;13.30;99.90
62573;DHT22;48626;51.678;5.806;2023-05-02T00:40:46;13.30;99.90
62573;DHT22;48626;51.678;5.806;2023-05-02T00:43:13;13.30;99.90
62573;DHT22;48626;51.678;5.806;2023-05-02T00:45:39;13.30;99.90
62573;DHT22;48626;51.678;5.806;2023-05-02T00:48:07;13.30;99.90
62573;DHT22;48626;51.678;5.806;2023-05-02T00:50:36;13.30;99.90
62573;DHT22;48626;51.678;5.806;2023-05-02T00:53:03;13.30;99.90
62573;DHT22;48626;51.678;5.806;2023-05-02T00:55:31;13.20;99.90
62573;DHT22;48626;51.678;5.806;2023-05-02T00:57:58;13.20;99.90
62573;DHT22;48626;51.678;5.806;2023-05-02T01:00:33;13.20;99.90
62573;DHT22;48626;51.678;5.806;2023-05-02T01:03:19;13.10;99.90
62573;DHT22;48626;51.678;5.806;2023-05-02T01:06:00;13.10;99.90
62573;DHT22;48626;51.678;5.806;2023-05-02T01:08:56;12.90;99.90
62573;DHT22;48626;51.678;5.806;2023-05-02T01:11:34;12.90;99.90
62573;DHT22;48626;51.678;5.806;2023-05-02T01:14:04;12.90;99.90
62573;DHT22;48626;51.678;5.806;2023-05-02T01:16:34;13.00;99.90
62573;DHT22;48626;51.678;5.806;2023-05-02T01:19:05;13.00;99.90
62573;DHT22;48626;51.678;5.806;2023-05-02T01:21:36;13.00;99.90
62573;DHT22;48626;51.678;5.806;2023-05-02T01:24:29;13.10;99.90
62573;DHT22;48626;51.678;5.806;2023-05-02T01:27:27;13.00;99.90
62573;DHT22;48626;51.678;5.806;2023-05-02T01:29:49;13.00;99.90
62573;DHT22;48626;51.678;5.806;2023-05-02T01:32:19;13.00;99.90
62573;DHT22;48626;51.678;5.806;2023-05-02T01:34:46;13.00;99.90
62573;DHT22;48626;51.678;5.806;2023-05-02T01:37:14;12.90;99.90
62573;DHT22;48626;51.678;5.806;2023-05-02T01:39:43;12.80;99.90
62573;DHT22;48626;51.678;5.806;2023-05-02T01:42:10;12.90;99.90
62573;DHT22;48626;51.678;5.806;2023-05-02T01:44:38;12.80;99.90
62573;DHT22;48626;51.678;5.806;2023-05-02T01:47:05;12.80;99.90
62573;DHT22;48626;51.678;5.806;2023-05-02T01:49:34;12.80;99.90
62573;DHT22;48626;51.678;5.806;2023-05-02T01:52:10;12.80;99.90
62573;DHT22;48626;51.678;5.806;2023-05-02T01:54:37;12.80;99.90
62573;DHT22;48626;51.678;5.806;2023-05-02T01:57:05;12.80;99.90
62573;DHT22;48626;51.678;5.806;2023-05-02T01:59:32;12.90;99.90
62573;DHT22;48626;51.678;5.806;2023-05-02T02:01:59;12.90;99.90
62573;DHT22;48626;51.678;5.806;2023-05-02T02:04:27;12.80;99.90
62573;DHT22;48626;51.678;5.806;2023-05-02T02:07:06;12.90;99.90
62573;DHT22;48626;51.678;5.806;2023-05-02T02:09:33;12.80;99.90
62573;DHT22;48626;51.678;5.806;2023-05-02T02:12:04;12.80;99.90
62573;DHT22;48626;51.678;5.806;2023-05-02T02:14:37;12.80;99.90
62573;DHT22;48626;51.678;5.806;2023-05-02T02:17:09;12.80;99.90
62573;DHT22;48626;51.678;5.806;2023-05-02T02:19:38;12.80;99.90
62573;DHT22;48626;51.678;5.806;2023-05-02T02:22:05;12.80;99.90
62573;DHT22;48626;51.678;5.806;2023-05-02T02:24:35;12.80;99.90
62573;DHT22;48626;51.678;5.806;2023-05-02T02:27:02;12.80;99.90
62573;DHT22;48626;51.678;5.806;2023-05-02T02:29:27;12.70;99.90
62573;DHT22;48626;51.678;5.806;2023-05-02T02:31:53;12.80;99.90
62573;DHT22;48626;51.678;5.806;2023-05-02T02:34:20;12.80;99.90
62573;DHT22;48626;51.678;5.806;2023-05-02T02:37:15;12.80;99.90
62573;DHT22;48626;51.678;5.806;2023-05-02T02:48:07;12.90;99.90
62573;DHT22;48626;51.678;5.806;2023-05-02T02:51:18;12.90;99.90
62573;DHT22;48626;51.678;5.806;2023-05-02T02:54:03;12.80;99.90
62573;DHT22;48626;51.678;5.806;2023-05-02T02:56:45;12.80;99.90
62573;DHT22;48626;51.678;5.806;2023-05-02T02:59:22;12.80;99.90
62573;DHT22;48626;51.678;5.806;2023-05-02T03:02:11;12.70;99.90
62573;DHT22;48626;51.678;5.806;2023-05-02T03:04:40;12.70;99.90
62573;DHT22;48626;51.678;5.806;2023-05-02T03:07:09;12.70;99.90
62573;DHT22;48626;51.678;5.806;2023-05-02T03:09:46;12.70;99.90
62573;DHT22;48626;51.678;5.806;2023-05-02T03:12:13;12.70;99.90
62573;DHT22;48626;51.678;5.806;2023-05-02T03:14:39;12.70;99.90
62573;DHT22;48626;51.678;5.806;2023-05-02T03:17:05;12.60;99.90
62573;DHT22;48626;51.678;5.806;2023-05-02T03:19:33;12.50;99.90
62573;DHT22;48626;51.678;5.806;2023-05-02T03:21:59;12.50;99.90
62573;DHT22;48626;51.678;5.806;2023-05-02T03:24:24;12.50;99.90
62573;DHT22;48626;51.678;5.806;2023-05-02T03:26:55;12.50;99.90
62573;DHT22;48626;51.678;5.806;2023-05-02T03:29:21;12.40;99.90
62573;DHT22;48626;51.678;5.806;2023-05-02T03:31:47;12.40;99.90
62573;DHT22;48626;51.678;5.806;2023-05-02T03:34:13;12.40;99.90
62573;DHT22;48626;51.678;5.806;2023-05-02T03:36:39;12.40;99.90
62573;DHT22;48626;51.678;5.806;2023-05-02T03:39:05;12.40;99.90
62573;DHT22;48626;51.678;5.806;2023-05-02T03:41:31;12.40;99.90
62573;DHT22;48626;51.678;5.806;2023-05-02T03:43:57;12.40;99.90
62573;DHT22;48626;51.678;5.806;2023-05-02T03:46:22;12.30;99.90
62573;DHT22;48626;51.678;5.806;2023-05-02T03:48:49;12.30;99.90
62573;DHT22;48626;51.678;5.806;2023-05-02T03:51:15;12.30;99.90
62573;DHT22;48626;51.678;5.806;2023-05-02T03:53:40;12.40;99.90
62573;DHT22;48626;51.678;5.806;2023-05-02T03:56:06;12.40;99.90
62573;DHT22;48626;51.678;5.806;2023-05-02T03:58:33;12.40;99.90
62573;DHT22;48626;51.678;5.806;2023-05-02T04:01:00;12.40;99.90
62573;DHT22;48626;51.678;5.806;2023-05-02T04:03:27;12.40;99.90
62573;DHT22;48626;51.678;5.806;2023-05-02T04:05:53;12.30;99.90
62573;DHT22;48626;51.678;5.806;2023-05-02T04:08:19;12.30;99.90
62573;DHT22;48626;51.678;5.806;2023-05-02T04:10:44;12.20;99.90
62573;DHT22;48626;51.678;5.806;2023-05-02T04:13:10;12.20;99.90
62573;DHT22;48626;51.678;5.806;2023-05-02T04:15:36;12.20;99.90
62573;DHT22;48626;51.678;5.806;2023-05-02T04:18:02;12.20;99.90
62573;DHT22;48626;51.678;5.806;2023-05-02T04:20:28;12.10;99.90
62573;DHT22;48626;51.678;5.806;2023-05-02T04:22:54;12.20;99.90
62573;DHT22;48626;51.678;5.806;2023-05-02T04:25:20;12.10;99.90
62573;DHT22;48626;51.678;5.806;2023-05-02T04:27:46;12.10;99.90
62573;DHT22;48626;51.678;5.806;2023-05-02T04:30:11;12.10;99.90
62573;DHT22;48626;51.678;5.806;2023-05-02T04:32:37;12.10;99.90
62573;DHT22;48626;51.678;5.806;2023-05-02T04:35:04;12.10;99.90
62573;DHT22;48626;51.678;5.806;2023-05-02T04:37:30;12.10;99.90
62573;DHT22;48626;51.678;5.806;2023-05-02T04:39:56;12.00;99.90
62573;DHT22;48626;51.678;5.806;2023-05-02T04:42:22;12.10;99.90
62573;DHT22;48626;51.678;5.806;2023-05-02T04:44:48;12.00;99.90
62573;DHT22;48626;51.678;5.806;2023-05-02T04:47:14;12.00;99.90
62573;DHT22;48626;51.678;5.806;2023-05-02T04:49:41;11.90;99.90
62573;DHT22;48626;51.678;5.806;2023-05-02T04:52:08;11.90;99.90
62573;DHT22;48626;51.678;5.806;2023-05-02T04:54:34;11.80;99.90
62573;DHT22;48626;51.678;5.806;2023-05-02T04:57:01;11.70;99.90
62573;DHT22;48626;51.678;5.806;2023-05-02T04:59:28;11.60;99.90
62573;DHT22;48626;51.678;5.806;2023-05-02T05:01:55;11.50;99.90
62573;DHT22;48626;51.678;5.806;2023-05-02T05:04:21;11.50;99.90
62573;DHT22;48626;51.678;5.806;2023-05-02T05:06:47;11.40;99.90
62573;DHT22;48626;51.678;5.806;2023-05-02T05:09:14;11.40;99.90
62573;DHT22;48626;51.678;5.806;2023-05-02T05:11:39;11.50;99.90
62573;DHT22;48626;51.678;5.806;2023-05-02T05:14:07;11.60;99.90
62573;DHT22;48626;51.678;5.806;2023-05-02T05:16:33;11.60;99.90
62573;DHT22;48626;51.678;5.806;2023-05-02T05:18:59;11.70;99.90
62573;DHT22;48626;51.678;5.806;2023-05-02T05:21:25;11.80;99.90
62573;DHT22;48626;51.678;5.806;2023-05-02T05:23:51;11.90;99.90
62573;DHT22;48626;51.678;5.806;2023-05-02T05:26:17;11.90;99.90
62573;DHT22;48626;51.678;5.806;2023-05-02T05:28:43;11.90;99.90
62573;DHT22;48626;51.678;5.806;2023-05-02T05:31:10;11.90;99.90
62573;DHT22;48626;51.678;5.806;2023-05-02T05:33:37;11.90;99.90
62573;DHT22;48626;51.678;5.806;2023-05-02T05:36:10;12.00;99.90
62573;DHT22;48626;51.678;5.806;2023-05-02T05:38:36;12.00;99.90
62573;DHT22;48626;51.678;5.806;2023-05-02T05:41:02;12.10;99.90
62573;DHT22;48626;51.678;5.806;2023-05-02T05:43:29;12.20;99.90
62573;DHT22;48626;51.678;5.806;2023-05-02T05:45:55;12.20;99.90
62573;DHT22;48626;51.678;5.806;2023-05-02T05:48:22;12.20;99.90
62573;DHT22;48626;51.678;5.806;2023-05-02T05:50:47;12.20;99.90
62573;DHT22;48626;51.678;5.806;2023-05-02T05:53:14;12.20;99.90
62573;DHT22;48626;51.678;5.806;2023-05-02T05:55:40;12.20;99.90
62573;DHT22;48626;51.678;5.806;2023-05-02T05:58:07;12.30;99.90
62573;DHT22;48626;51.678;5.806;2023-05-02T06:00:39;12.20;99.90
62573;DHT22;48626;51.678;5.806;2023-05-02T06:03:05;12.30;99.90
62573;DHT22;48626;51.678;5.806;2023-05-02T06:05:31;12.30;99.90
62573;DHT22;48626;51.678;5.806;2023-05-02T06:07:57;12.30;99.90
62573;DHT22;48626;51.678;5.806;2023-05-02T06:10:23;12.30;99.90
62573;DHT22;48626;51.678;5.806;2023-05-02T06:12:49;12.30;99.90
62573;DHT22;48626;51.678;5.806;2023-05-02T06:15:15;12.20;99.90
62573;DHT22;48626;51.678;5.806;2023-05-02T06:17:41;12.30;99.90
62573;DHT22;48626;51.678;5.806;2023-05-02T06:20:07;12.20;99.90
62573;DHT22;48626;51.678;5.806;2023-05-02T06:22:34;12.20;99.90
62573;DHT22;48626;51.678;5.806;2023-05-02T06:24:59;12.20;99.90
62573;DHT22;48626;51.678;5.806;2023-05-02T06:27:25;12.10;99.90
62573;DHT22;48626;51.678;5.806;2023-05-02T06:29:51;12.10;99.90
62573;DHT22;48626;51.678;5.806;2023-05-02T06:32:17;12.00;99.90
62573;DHT22;48626;51.678;5.806;2023-05-02T06:34:43;11.90;99.90
62573;DHT22;48626;51.678;5.806;2023-05-02T06:37:09;11.90;99.90
62573;DHT22;48626;51.678;5.806;2023-05-02T06:39:35;11.80;99.90
62573;DHT22;48626;51.678;5.806;2023-05-02T06:42:01;11.80;99.90
62573;DHT22;48626;51.678;5.806;2023-05-02T06:44:27;11.80;99.90
62573;DHT22;48626;51.678;5.806;2023-05-02T06:46:52;11.90;99.90
62573;DHT22;48626;51.678;5.806;2023-05-02T06:49:20;11.90;99.90
62573;DHT22;48626;51.678;5.806;2023-05-02T06:51:46;11.80;99.90
62573;DHT22;48626;51.678;5.806;2023-05-02T06:54:12;11.80;99.90
62573;DHT22;48626;51.678;5.806;2023-05-02T06:56:39;11.80;99.90
62573;DHT22;48626;51.678;5.806;2023-05-02T06:59:05;11.80;99.90
62573;DHT22;48626;51.678;5.806;2023-05-02T07:01:30;11.90;99.90
62573;DHT22;48626;51.678;5.806;2023-05-02T07:03:56;12.10;99.90
62573;DHT22;48626;51.678;5.806;2023-05-02T07:06:22;12.20;99.90
62573;DHT22;48626;51.678;5.806;2023-05-02T07:08:48;12.30;99.90
62573;DHT22;48626;51.678;5.806;2023-05-02T07:11:13;12.40;99.90
62573;DHT22;48626;51.678;5.806;2023-05-02T07:13:39;12.40;99.90
62573;DHT22;48626;51.678;5.806;2023-05-02T07:16:06;12.50;99.90
62573;DHT22;48626;51.678;5.806;2023-05-02T07:18:31;12.70;99.90
62573;DHT22;48626;51.678;5.806;2023-05-02T07:20:57;12.90;99.90
62573;DHT22;48626;51.678;5.806;2023-05-02T07:23:23;13.10;99.90
62573;DHT22;48626;51.678;5.806;2023-05-02T07:25:49;13.20;99.90
62573;DHT22;48626;51.678;5.806;2023-05-02T07:28:15;13.10;99.90
62573;DHT22;48626;51.678;5.806;2023-05-02T07:30:40;13.20;99.90
62573;DHT22;48626;51.678;5.806;2023-05-02T07:33:06;13.20;99.90
62573;DHT22;48626;51.678;5.806;2023-05-02T07:35:32;13.30;99.90
62573;DHT22;48626;51.678;5.806;2023-05-02T07:37:57;13.30;99.90
62573;DHT22;48626;51.678;5.806;2023-05-02T07:40:23;13.20;99.90
62573;DHT22;48626;51.678;5.806;2023-05-02T07:42:49;13.10;99.90
62573;DHT22;48626;51.678;5.806;2023-05-02T07:45:15;13.10;99.90
62573;DHT22;48626;51.678;5.806;2023-05-02T07:47:41;13.10;99.90
62573;DHT22;48626;51.678;5.806;2023-05-02T07:50:07;13.10;99.90
62573;DHT22;48626;51.678;5.806;2023-05-02T07:52:33;13.20;99.90
62573;DHT22;48626;51.678;5.806;2023-05-02T07:54:59;13.30;99.90
62573;DHT22;48626;51.678;5.806;2023-05-02T07:57:25;13.40;99.90
62573;DHT22;48626;51.678;5.806;2023-05-02T07:59:51;13.60;99.90
62573;DHT22;48626;51.678;5.806;2023-05-02T08:02:17;13.80;99.90
62573;DHT22;48626;51.678;5.806;2023-05-02T08:04:46;13.90;99.90
62573;DHT22;48626;51.678;5.806;2023-05-02T08:07:12;13.90;99.90
62573;DHT22;48626;51.678;5.806;2023-05-02T08:09:37;14.00;99.90
62573;DHT22;48626;51.678;5.806;2023-05-02T08:12:03;14.10;99.90
62573;DHT22;48626;51.678;5.806;2023-05-02T08:14:29;14.30;99.90
62573;DHT22;48626;51.678;5.806;2023-05-02T08:16:56;14.20;99.90
62573;DHT22;48626;51.678;5.806;2023-05-02T08:19:21;14.30;99.90
62573;DHT22;48626;51.678;5.806;2023-05-02T08:21:47;14.30;99.90
62573;DHT22;48626;51.678;5.806;2023-05-02T08:24:13;14.30;99.90
62573;DHT22;48626;51.678;5.806;2023-05-02T08:26:38;14.30;99.90
62573;DHT22;48626;51.678;5.806;2023-05-02T08:29:04;14.40;99.90
62573;DHT22;48626;51.678;5.806;2023-05-02T08:31:30;14.30;99.90
62573;DHT22;48626;51.678;5.806;2023-05-02T08:33:56;14.40;99.90
62573;DHT22;48626;51.678;5.806;2023-05-02T08:36:21;14.40;99.90
62573;DHT22;48626;51.678;5.806;2023-05-02T08:38:47;14.40;99.90
62573;DHT22;48626;51.678;5.806;2023-05-02T08:41:17;14.30;99.90
62573;DHT22;48626;51.678;5.806;2023-05-02T08:43:44;14.40;99.90
62573;DHT22;48626;51.678;5.806;2023-05-02T08:46:12;14.40;99.90
62573;DHT22;48626;51.678;5.806;2023-05-02T08:48:39;14.40;99.90
62573;DHT22;48626;51.678;5.806;2023-05-02T08:51:10;14.50;99.90
62573;DHT22;48626;51.678;5.806;2023-05-02T08:53:37;14.40;99.90
62573;DHT22;48626;51.678;5.806;2023-05-02T08:56:03;14.40;99.90
62573;DHT22;48626;51.678;5.806;2023-05-02T08:58:29;14.40;99.90
62573;DHT22;48626;51.678;5.806;2023-05-02T09:00:56;14.40;99.90
62573;DHT22;48626;51.678;5.806;2023-05-02T09:03:32;14.40;99.90
62573;DHT22;48626;51.678;5.806;2023-05-02T09:06:04;14.30;99.90
62573;DHT22;48626;51.678;5.806;2023-05-02T09:08:31;14.40;99.90
62573;DHT22;48626;51.678;5.806;2023-05-02T09:10:57;14.60;99.90
62573;DHT22;48626;51.678;5.806;2023-05-02T09:16:12;14.80;99.90
62573;DHT22;48626;51.678;5.806;2023-05-02T09:18:41;14.80;99.90
62573;DHT22;48626;51.678;5.806;2023-05-02T09:21:16;14.80;99.90
62573;DHT22;48626;51.678;5.806;2023-05-02T09:23:46;15.10;99.90
62573;DHT22;48626;51.678;5.806;2023-05-02T09:26:26;15.40;99.90
62573;DHT22;48626;51.678;5.806;2023-05-02T09:28:56;15.40;99.90
62573;DHT22;48626;51.678;5.806;2023-05-02T09:31:27;15.40;99.90
62573;DHT22;48626;51.678;5.806;2023-05-02T09:34:11;15.60;99.90
62573;DHT22;48626;51.678;5.806;2023-05-02T09:36:41;15.80;99.90
62573;DHT22;48626;51.678;5.806;2023-05-02T09:39:09;15.90;99.90
62573;DHT22;48626;51.678;5.806;2023-05-02T09:41:39;15.90;99.90
62573;DHT22;48626;51.678;5.806;2023-05-02T09:44:05;15.70;99.90
62573;DHT22;48626;51.678;5.806;2023-05-02T09:46:39;15.60;99.90
62573;DHT22;48626;51.678;5.806;2023-05-02T09:49:05;15.50;99.90
62573;DHT22;48626;51.678;5.806;2023-05-02T09:51:31;15.40;99.90
62573;DHT22;48626;51.678;5.806;2023-05-02T09:53:57;15.30;99.90
62573;DHT22;48626;51.678;5.806;2023-05-02T09:56:22;15.30;99.90
62573;DHT22;48626;51.678;5.806;2023-05-02T09:58:48;15.20;99.90
62573;DHT22;48626;51.678;5.806;2023-05-02T10:01:18;15.10;99.90
62573;DHT22;48626;51.678;5.806;2023-05-02T10:03:47;15.10;99.90
62573;DHT22;48626;51.678;5.806;2023-05-02T10:06:14;15.20;99.90
62573;DHT22;48626;51.678;5.806;2023-05-02T10:08:41;15.30;99.90
62573;DHT22;48626;51.678;5.806;2023-05-02T10:11:12;15.30;99.90
62573;DHT22;48626;51.678;5.806;2023-05-02T10:13:40;15.40;99.90
62573;DHT22;48626;51.678;5.806;2023-05-02T10:16:07;15.50;99.90
62573;DHT22;48626;51.678;5.806;2023-05-02T10:21:15;16.30;99.90
62573;DHT22;48626;51.678;5.806;2023-05-02T10:23:43;16.70;99.90
62573;DHT22;48626;51.678;5.806;2023-05-02T10:26:13;16.90;99.90
62573;DHT22;48626;51.678;5.806;2023-05-02T10:28:40;17.00;99.90
62573;DHT22;48626;51.678;5.806;2023-05-02T10:31:09;16.90;99.90
62573;DHT22;48626;51.678;5.806;2023-05-02T10:33:37;17.00;99.90
62573;DHT22;48626;51.678;5.806;2023-05-02T10:36:03;16.80;99.90
62573;DHT22;48626;51.678;5.806;2023-05-02T10:38:30;16.80;99.90
62573;DHT22;48626;51.678;5.806;2023-05-02T10:40:59;16.90;99.90
62573;DHT22;48626;51.678;5.806;2023-05-02T10:43:31;16.90;99.90
62573;DHT22;48626;51.678;5.806;2023-05-02T10:45:58;16.90;99.90
62573;DHT22;48626;51.678;5.806;2023-05-02T10:48:25;16.80;99.90
62573;DHT22;48626;51.678;5.806;2023-05-02T10:50:52;16.60;99.90
62573;DHT22;48626;51.678;5.806;2023-05-02T10:53:38;16.60;99.90
62573;DHT22;48626;51.678;5.806;2023-05-02T10:56:14;16.70;99.90
62573;DHT22;48626;51.678;5.806;2023-05-02T10:58:42;16.70;99.90
62573;DHT22;48626;51.678;5.806;2023-05-02T11:03:59;17.20;99.90
62573;DHT22;48626;51.678;5.806;2023-05-02T11:06:27;17.20;99.90
62573;DHT22;48626;51.678;5.806;2023-05-02T11:11:42;17.60;99.90
62573;DHT22;48626;51.678;5.806;2023-05-02T11:14:10;18.00;99.90
62573;DHT22;48626;51.678;5.806;2023-05-02T11:17:05;18.30;99.90
62573;DHT22;48626;51.678;5.806;2023-05-02T11:24:46;18.30;99.90
62573;DHT22;48626;51.678;5.806;2023-05-02T11:29:59;17.90;99.90
62573;DHT22;48626;51.678;5.806;2023-05-02T11:35:22;17.40;99.90
62573;DHT22;48626;51.678;5.806;2023-05-02T11:37:58;18.10;99.90
62573;DHT22;48626;51.678;5.806;2023-05-02T11:40:26;18.00;99.90
62573;DHT22;48626;51.678;5.806;2023-05-02T11:42:52;17.70;99.90
62573;DHT22;48626;51.678;5.806;2023-05-02T11:45:18;17.40;99.90
62573;DHT22;48626;51.678;5.806;2023-05-02T11:47:46;17.30;99.90
62573;DHT22;48626;51.678;5.806;2023-05-02T11:50:13;17.60;99.90
62573;DHT22;48626;51.678;5.806;2023-05-02T11:52:40;18.80;99.90
62573;DHT22;48626;51.678;5.806;2023-05-02T11:55:09;20.00;99.90
62573;DHT22;48626;51.678;5.806;2023-05-02T11:57:36;20.70;99.90
62573;DHT22;48626;51.678;5.806;2023-05-02T12:00:02;21.10;99.90
62573;DHT22;48626;51.678;5.806;2023-05-02T12:05:04;21.60;99.90
62573;DHT22;48626;51.678;5.806;2023-05-02T12:07:41;22.20;99.90
62573;DHT22;48626;51.678;5.806;2023-05-02T12:10:09;22.90;99.90
62573;DHT22;48626;51.678;5.806;2023-05-02T12:12:36;23.20;99.90
62573;DHT22;48626;51.678;5.806;2023-05-02T12:15:03;22.20;99.90
62573;DHT22;48626;51.678;5.806;2023-05-02T12:17:30;21.40;99.90
62573;DHT22;48626;51.678;5.806;2023-05-02T12:19:56;21.20;99.90
62573;DHT22;48626;51.678;5.806;2023-05-02T12:22:23;22.00;99.90
62573;DHT22;48626;51.678;5.806;2023-05-02T12:24:50;22.50;99.90
62573;DHT22;48626;51.678;5.806;2023-05-02T12:27:18;22.90;99.90
62573;DHT22;48626;51.678;5.806;2023-05-02T12:29:47;23.90;99.90
62573;DHT22;48626;51.678;5.806;2023-05-02T12:32:14;24.70;99.90
62573;DHT22;48626;51.678;5.806;2023-05-02T12:34:43;23.90;99.90
62573;DHT22;48626;51.678;5.806;2023-05-02T12:37:08;23.10;99.90
62573;DHT22;48626;51.678;5.806;2023-05-02T12:39:35;23.40;99.90
62573;DHT22;48626;51.678;5.806;2023-05-02T12:42:15;24.00;99.90
62573;DHT22;48626;51.678;5.806;2023-05-02T12:44:45;24.60;99.90
62573;DHT22;48626;51.678;5.806;2023-05-02T12:47:15;25.30;99.90
62573;DHT22;48626;51.678;5.806;2023-05-02T12:49:54;25.90;99.90
62573;DHT22;48626;51.678;5.806;2023-05-02T12:55:22;26.00;99.90
62573;DHT22;48626;51.678;5.806;2023-05-02T12:57:49;26.10;99.90
62573;DHT22;48626;51.678;5.806;2023-05-02T13:00:16;26.50;99.90
62573;DHT22;48626;51.678;5.806;2023-05-02T13:02:42;26.40;99.90
62573;DHT22;48626;51.678;5.806;2023-05-02T13:07:40;26.00;99.90
62573;DHT22;48626;51.678;5.806;2023-05-02T13:10:06;26.10;99.90
62573;DHT22;48626;51.678;5.806;2023-05-02T13:12:32;26.10;99.90
62573;DHT22;48626;51.678;5.806;2023-05-02T13:15:02;27.00;99.90
62573;DHT22;48626;51.678;5.806;2023-05-02T13:17:28;27.30;99.90
62573;DHT22;48626;51.678;5.806;2023-05-02T13:19:54;27.40;99.90
62573;DHT22;48626;51.678;5.806;2023-05-02T13:22:19;27.40;99.90
62573;DHT22;48626;51.678;5.806;2023-05-02T13:24:45;27.70;99.90
62573;DHT22;48626;51.678;5.806;2023-05-02T13:27:11;28.30;99.90
62573;DHT22;48626;51.678;5.806;2023-05-02T13:29:37;27.90;99.90
62573;DHT22;48626;51.678;5.806;2023-05-02T13:32:02;27.60;99.90
62573;DHT22;48626;51.678;5.806;2023-05-02T13:34:28;27.70;99.90
62573;DHT22;48626;51.678;5.806;2023-05-02T13:36:53;27.90;99.90
62573;DHT22;48626;51.678;5.806;2023-05-02T13:39:19;28.30;99.90
62573;DHT22;48626;51.678;5.806;2023-05-02T13:41:45;28.40;99.90
62573;DHT22;48626;51.678;5.806;2023-05-02T13:44:10;27.70;99.90
62573;DHT22;48626;51.678;5.806;2023-05-02T13:46:36;27.20;99.90
62573;DHT22;48626;51.678;5.806;2023-05-02T13:49:03;27.10;99.90
62573;DHT22;48626;51.678;5.806;2023-05-02T13:51:29;27.10;99.90
62573;DHT22;48626;51.678;5.806;2023-05-02T13:53:56;27.30;99.90
62573;DHT22;48626;51.678;5.806;2023-05-02T13:56:22;27.10;99.90
62573;DHT22;48626;51.678;5.806;2023-05-02T13:58:48;26.50;99.90
62573;DHT22;48626;51.678;5.806;2023-05-02T14:01:13;26.00;99.90
62573;DHT22;48626;51.678;5.806;2023-05-02T14:03:39;25.90;99.90
62573;DHT22;48626;51.678;5.806;2023-05-02T14:06:05;26.50;99.90
62573;DHT22;48626;51.678;5.806;2023-05-02T14:08:31;26.00;99.90
62573;DHT22;48626;51.678;5.806;2023-05-02T14:10:56;25.80;99.90
62573;DHT22;48626;51.678;5.806;2023-05-02T14:13:22;25.90;99.90
62573;DHT22;48626;51.678;5.806;2023-05-02T14:15:49;25.60;99.90
62573;DHT22;48626;51.678;5.806;2023-05-02T14:18:15;26.20;99.90
62573;DHT22;48626;51.678;5.806;2023-05-02T14:20:43;27.00;99.90
62573;DHT22;48626;51.678;5.806;2023-05-02T14:23:09;27.30;99.90
62573;DHT22;48626;51.678;5.806;2023-05-02T14:25:35;27.60;99.90
62573;DHT22;48626;51.678;5.806;2023-05-02T14:28:02;28.10;99.90
62573;DHT22;48626;51.678;5.806;2023-05-02T14:30:28;28.30;99.90
62573;DHT22;48626;51.678;5.806;2023-05-02T14:32:54;28.50;99.90
62573;DHT22;48626;51.678;5.806;2023-05-02T14:35:20;28.70;99.90
62573;DHT22;48626;51.678;5.806;2023-05-02T14:37:46;28.80;99.90
62573;DHT22;48626;51.678;5.806;2023-05-02T14:40:12;29.10;99.90
62573;DHT22;48626;51.678;5.806;2023-05-02T14:42:39;29.50;99.90
62573;DHT22;48626;51.678;5.806;2023-05-02T14:45:05;29.80;99.90
62573;DHT22;48626;51.678;5.806;2023-05-02T14:47:31;29.40;99.90
62573;DHT22;48626;51.678;5.806;2023-05-02T14:49:57;29.30;99.90
62573;DHT22;48626;51.678;5.806;2023-05-02T14:52:23;29.10;99.90
62573;DHT22;48626;51.678;5.806;2023-05-02T14:54:48;29.30;99.90
62573;DHT22;48626;51.678;5.806;2023-05-02T14:57:14;29.30;99.90
62573;DHT22;48626;51.678;5.806;2023-05-02T14:59:40;29.40;99.90
62573;DHT22;48626;51.678;5.806;2023-05-02T15:02:06;29.40;99.90
62573;DHT22;48626;51.678;5.806;2023-05-02T15:04:32;29.30;99.90
62573;DHT22;48626;51.678;5.806;2023-05-02T15:06:59;29.00;99.90
62573;DHT22;48626;51.678;5.806;2023-05-02T15:09:25;28.00;99.90
62573;DHT22;48626;51.678;5.806;2023-05-02T15:11:51;27.40;99.90
62573;DHT22;48626;51.678;5.806;2023-05-02T15:14:17;26.60;99.90
62573;DHT22;48626;51.678;5.806;2023-05-02T15:16:43;26.30;99.90
62573;DHT22;48626;51.678;5.806;2023-05-02T15:19:09;26.60;99.90
62573;DHT22;48626;51.678;5.806;2023-05-02T15:21:35;26.50;99.90
62573;DHT22;48626;51.678;5.806;2023-05-02T15:24:01;26.50;99.90
62573;DHT22;48626;51.678;5.806;2023-05-02T15:26:27;26.50;99.90
62573;DHT22;48626;51.678;5.806;2023-05-02T15:28:53;26.90;99.90
62573;DHT22;48626;51.678;5.806;2023-05-02T15:31:19;27.30;99.90
62573;DHT22;48626;51.678;5.806;2023-05-02T15:33:45;27.50;99.90
62573;DHT22;48626;51.678;5.806;2023-05-02T15:36:11;27.70;99.90
62573;DHT22;48626;51.678;5.806;2023-05-02T15:38:36;28.10;99.90
62573;DHT22;48626;51.678;5.806;2023-05-02T15:41:07;28.10;99.90
62573;DHT22;48626;51.678;5.806;2023-05-02T15:43:34;27.80;99.90
62573;DHT22;48626;51.678;5.806;2023-05-02T15:46:00;27.70;99.90
62573;DHT22;48626;51.678;5.806;2023-05-02T15:48:27;27.40;99.90
62573;DHT22;48626;51.678;5.806;2023-05-02T15:50:53;27.60;99.90
62573;DHT22;48626;51.678;5.806;2023-05-02T15:53:20;28.00;99.90
62573;DHT22;48626;51.678;5.806;2023-05-02T15:55:49;28.10;99.90
62573;DHT22;48626;51.678;5.806;2023-05-02T15:58:15;27.50;99.90
62573;DHT22;48626;51.678;5.806;2023-05-02T16:00:42;27.20;99.90
62573;DHT22;48626;51.678;5.806;2023-05-02T16:03:08;27.00;99.90
62573;DHT22;48626;51.678;5.806;2023-05-02T16:05:34;26.40;99.90
62573;DHT22;48626;51.678;5.806;2023-05-02T16:08:00;26.50;99.90
62573;DHT22;48626;51.678;5.806;2023-05-02T16:10:26;26.50;99.90
62573;DHT22;48626;51.678;5.806;2023-05-02T16:12:52;26.30;99.90